Pinewood, Texas
Current Conditions -  °F | °C
As of 5:53 PM on Friday 28 Nov 2014 (Local Time) from KGGG Reporting Station
Clear Clear  
Wind Chill: 57°   Ceiling: Unl
Heat Index: 57°   Visibility: 10mi
Dew Point: 48°   Wind: 7mph
Humidity: 72%   Direction: 160°SSE
Pressure: 30.1"   Gusts: NA
Location:  32.4573°N, 94.6541°W
Report Text: KGGG 282353Z 16006KT 10SM CLR 14/09 A3010 RMK AO2 SLP195 T01390089 10200 20139 58012
Loading
Personal Weather Stations






























Interactive Weather Map New forecast layout! Learn more

10-Day Weather Forecast

Advertisements
Track Severe Weather on mobile